sensor_id;sensor_type;location;lat;lon;timestamp;P1;durP1;ratioP1;P2;durP2;ratioP2
30062;SDS011;16889;67.864;24.990;2022-08-19T00:01:07;0.57;;;0.57;;
30062;SDS011;16889;67.864;24.990;2022-08-19T00:05:53;3.95;;;0.60;;
30062;SDS011;16889;67.864;24.990;2022-08-19T00:10:40;4.43;;;0.60;;
30062;SDS011;16889;67.864;24.990;2022-08-19T00:15:26;4.15;;;0.80;;
30062;SDS011;16889;67.864;24.990;2022-08-19T00:20:14;0.40;;;0.40;;
30062;SDS011;16889;67.864;24.990;2022-08-19T00:25:03;3.92;;;0.60;;
30062;SDS011;16889;67.864;24.990;2022-08-19T00:29:51;3.30;;;0.60;;
30062;SDS011;16889;67.864;24.990;2022-08-19T00:34:37;0.93;;;0.55;;
30062;SDS011;16889;67.864;24.990;2022-08-19T00:39:23;0.80;;;0.50;;
30062;SDS011;16889;67.864;24.990;2022-08-19T00:44:13;1.25;;;0.50;;
30062;SDS011;16889;67.864;24.990;2022-08-19T00:49:12;1.27;;;0.70;;
30062;SDS011;16889;67.864;24.990;2022-08-19T00:54:02;2.92;;;0.68;;
30062;SDS011;16889;67.864;24.990;2022-08-19T00:58:48;4.93;;;0.50;;
30062;SDS011;16889;67.864;24.990;2022-08-19T01:03:35;1.65;;;0.80;;
30062;SDS011;16889;67.864;24.990;2022-08-19T01:08:21;1.17;;;0.60;;
30062;SDS011;16889;67.864;24.990;2022-08-19T01:13:08;2.40;;;0.70;;
30062;SDS011;16889;67.864;24.990;2022-08-19T01:17:55;4.60;;;0.75;;
30062;SDS011;16889;67.864;24.990;2022-08-19T01:27:39;1.02;;;0.50;;
30062;SDS011;16889;67.864;24.990;2022-08-19T01:32:26;7.82;;;0.70;;
30062;SDS011;16889;67.864;24.990;2022-08-19T01:37:13;9.32;;;0.80;;
30062;SDS011;16889;67.864;24.990;2022-08-19T01:42:00;0.70;;;0.50;;
30062;SDS011;16889;67.864;24.990;2022-08-19T01:51:34;1.20;;;0.60;;
30062;SDS011;16889;67.864;24.990;2022-08-19T01:56:20;4.53;;;0.70;;
30062;SDS011;16889;67.864;24.990;2022-08-19T02:01:08;4.00;;;0.63;;
30062;SDS011;16889;67.864;24.990;2022-08-19T02:05:55;3.90;;;0.70;;
30062;SDS011;16889;67.864;24.990;2022-08-19T02:10:43;4.65;;;0.73;;
30062;SDS011;16889;67.864;24.990;2022-08-19T02:15:29;5.18;;;0.85;;
30062;SDS011;16889;67.864;24.990;2022-08-19T02:20:15;4.07;;;0.80;;
30062;SDS011;16889;67.864;24.990;2022-08-19T02:25:02;3.17;;;0.70;;
30062;SDS011;16889;67.864;24.990;2022-08-19T02:29:50;0.70;;;0.70;;
30062;SDS011;16889;67.864;24.990;2022-08-19T02:34:36;8.65;;;0.82;;
30062;SDS011;16889;67.864;24.990;2022-08-19T02:39:22;2.90;;;0.80;;
30062;SDS011;16889;67.864;24.990;2022-08-19T02:44:08;10.77;;;0.98;;
30062;SDS011;16889;67.864;24.990;2022-08-19T02:48:59;2.05;;;1.10;;
30062;SDS011;16889;67.864;24.990;2022-08-19T02:53:47;1.55;;;0.80;;
30062;SDS011;16889;67.864;24.990;2022-08-19T02:58:33;4.65;;;1.02;;
30062;SDS011;16889;67.864;24.990;2022-08-19T03:03:19;4.78;;;1.13;;
30062;SDS011;16889;67.864;24.990;2022-08-19T03:08:06;1.23;;;1.00;;
30062;SDS011;16889;67.864;24.990;2022-08-19T03:12:53;8.33;;;1.10;;
30062;SDS011;16889;67.864;24.990;2022-08-19T03:17:39;2.58;;;0.93;;
30062;SDS011;16889;67.864;24.990;2022-08-19T03:22:25;2.90;;;0.90;;
30062;SDS011;16889;67.864;24.990;2022-08-19T03:27:11;4.22;;;1.08;;
30062;SDS011;16889;67.864;24.990;2022-08-19T03:31:58;10.73;;;2.28;;
30062;SDS011;16889;67.864;24.990;2022-08-19T03:36:46;3.92;;;1.17;;
30062;SDS011;16889;67.864;24.990;2022-08-19T03:41:35;5.50;;;1.27;;
30062;SDS011;16889;67.864;24.990;2022-08-19T03:46:26;2.05;;;1.20;;
30062;SDS011;16889;67.864;24.990;2022-08-19T03:51:15;2.92;;;1.30;;
30062;SDS011;16889;67.864;24.990;2022-08-19T03:56:10;4.68;;;1.23;;
30062;SDS011;16889;67.864;24.990;2022-08-19T04:00:56;1.50;;;1.13;;
30062;SDS011;16889;67.864;24.990;2022-08-19T04:05:43;1.95;;;1.40;;
30062;SDS011;16889;67.864;24.990;2022-08-19T04:10:29;3.50;;;1.60;;
30062;SDS011;16889;67.864;24.990;2022-08-19T04:15:16;2.83;;;1.50;;
30062;SDS011;16889;67.864;24.990;2022-08-19T04:20:02;5.15;;;1.23;;
30062;SDS011;16889;67.864;24.990;2022-08-19T04:24:48;2.72;;;1.20;;
30062;SDS011;16889;67.864;24.990;2022-08-19T04:29:34;4.50;;;1.00;;
30062;SDS011;16889;67.864;24.990;2022-08-19T04:34:25;5.53;;;1.00;;
30062;SDS011;16889;67.864;24.990;2022-08-19T04:39:15;4.10;;;1.08;;
30062;SDS011;16889;67.864;24.990;2022-08-19T04:44:03;2.53;;;1.35;;
30062;SDS011;16889;67.864;24.990;2022-08-19T04:48:49;2.38;;;1.00;;
30062;SDS011;16889;67.864;24.990;2022-08-19T04:53:36;5.38;;;1.17;;
30062;SDS011;16889;67.864;24.990;2022-08-19T04:58:25;1.50;;;1.10;;
30062;SDS011;16889;67.864;24.990;2022-08-19T05:03:12;4.72;;;1.20;;
30062;SDS011;16889;67.864;24.990;2022-08-19T05:08:02;3.90;;;1.10;;
30062;SDS011;16889;67.864;24.990;2022-08-19T05:12:48;2.65;;;1.13;;
30062;SDS011;16889;67.864;24.990;2022-08-19T05:17:34;2.35;;;1.00;;
30062;SDS011;16889;67.864;24.990;2022-08-19T05:22:20;4.55;;;1.10;;
30062;SDS011;16889;67.864;24.990;2022-08-19T05:27:19;2.50;;;1.20;;
30062;SDS011;16889;67.864;24.990;2022-08-19T05:32:05;3.17;;;1.00;;
30062;SDS011;16889;67.864;24.990;2022-08-19T05:36:57;4.70;;;1.30;;
30062;SDS011;16889;67.864;24.990;2022-08-19T05:41:48;5.88;;;1.25;;
30062;SDS011;16889;67.864;24.990;2022-08-19T05:46:38;2.42;;;1.35;;
30062;SDS011;16889;67.864;24.990;2022-08-19T05:51:24;4.00;;;1.25;;
30062;SDS011;16889;67.864;24.990;2022-08-19T05:56:12;4.32;;;1.17;;
30062;SDS011;16889;67.864;24.990;2022-08-19T06:01:01;3.67;;;1.35;;
30062;SDS011;16889;67.864;24.990;2022-08-19T06:05:49;2.20;;;1.20;;
30062;SDS011;16889;67.864;24.990;2022-08-19T06:10:35;3.15;;;1.15;;
30062;SDS011;16889;67.864;24.990;2022-08-19T06:15:21;2.58;;;1.20;;
30062;SDS011;16889;67.864;24.990;2022-08-19T06:20:11;3.78;;;1.45;;
30062;SDS011;16889;67.864;24.990;2022-08-19T06:24:59;3.92;;;1.48;;
30062;SDS011;16889;67.864;24.990;2022-08-19T06:29:45;2.05;;;1.20;;
30062;SDS011;16889;67.864;24.990;2022-08-19T06:34:32;5.10;;;1.48;;
30062;SDS011;16889;67.864;24.990;2022-08-19T06:39:21;1.90;;;1.30;;
30062;SDS011;16889;67.864;24.990;2022-08-19T06:44:11;3.75;;;1.60;;
30062;SDS011;16889;67.864;24.990;2022-08-19T06:48:57;3.00;;;1.50;;
30062;SDS011;16889;67.864;24.990;2022-08-19T06:53:44;4.95;;;1.40;;
30062;SDS011;16889;67.864;24.990;2022-08-19T06:58:34;3.10;;;1.30;;
30062;SDS011;16889;67.864;24.990;2022-08-19T07:03:20;2.47;;;1.30;;
30062;SDS011;16889;67.864;24.990;2022-08-19T07:08:06;1.67;;;1.30;;
30062;SDS011;16889;67.864;24.990;2022-08-19T07:12:52;5.40;;;1.38;;
30062;SDS011;16889;67.864;24.990;2022-08-19T07:17:38;6.50;;;1.40;;
30062;SDS011;16889;67.864;24.990;2022-08-19T07:22:25;1.90;;;1.20;;
30062;SDS011;16889;67.864;24.990;2022-08-19T07:27:13;4.18;;;1.40;;
30062;SDS011;16889;67.864;24.990;2022-08-19T07:32:00;3.55;;;1.60;;
30062;SDS011;16889;67.864;24.990;2022-08-19T07:36:47;5.87;;;1.63;;
30062;SDS011;16889;67.864;24.990;2022-08-19T07:41:34;7.25;;;1.50;;
30062;SDS011;16889;67.864;24.990;2022-08-19T07:46:22;2.72;;;1.30;;
30062;SDS011;16889;67.864;24.990;2022-08-19T07:51:08;2.90;;;1.40;;
30062;SDS011;16889;67.864;24.990;2022-08-19T07:55:56;4.45;;;1.70;;
30062;SDS011;16889;67.864;24.990;2022-08-19T08:00:47;3.75;;;1.60;;
30062;SDS011;16889;67.864;24.990;2022-08-19T08:05:34;3.45;;;1.55;;
30062;SDS011;16889;67.864;24.990;2022-08-19T08:10:39;1.92;;;1.58;;
30062;SDS011;16889;67.864;24.990;2022-08-19T08:15:25;5.43;;;1.65;;
30062;SDS011;16889;67.864;24.990;2022-08-19T08:20:12;7.32;;;1.90;;
30062;SDS011;16889;67.864;24.990;2022-08-19T08:25:32;3.47;;;1.45;;
30062;SDS011;16889;67.864;24.990;2022-08-19T08:30:16;6.25;;;1.95;;
30062;SDS011;16889;67.864;24.990;2022-08-19T08:35:05;10.52;;;1.65;;
30062;SDS011;16889;67.864;24.990;2022-08-19T08:39:53;6.50;;;1.90;;
30062;SDS011;16889;67.864;24.990;2022-08-19T08:44:42;11.23;;;1.80;;
30062;SDS011;16889;67.864;24.990;2022-08-19T08:55:00;5.22;;;2.22;;
30062;SDS011;16889;67.864;24.990;2022-08-19T08:59:51;3.38;;;2.00;;
30062;SDS011;16889;67.864;24.990;2022-08-19T09:04:42;3.58;;;2.05;;
30062;SDS011;16889;67.864;24.990;2022-08-19T09:09:31;8.82;;;3.05;;
30062;SDS011;16889;67.864;24.990;2022-08-19T09:19:46;7.05;;;3.05;;
30062;SDS011;16889;67.864;24.990;2022-08-19T09:24:35;7.72;;;2.75;;
30062;SDS011;16889;67.864;24.990;2022-08-19T09:29:21;12.18;;;4.32;;
30062;SDS011;16889;67.864;24.990;2022-08-19T09:34:07;12.48;;;4.47;;
30062;SDS011;16889;67.864;24.990;2022-08-19T09:38:53;11.98;;;5.15;;
30062;SDS011;16889;67.864;24.990;2022-08-19T09:43:40;9.70;;;5.40;;
30062;SDS011;16889;67.864;24.990;2022-08-19T09:48:30;12.85;;;4.60;;
30062;SDS011;16889;67.864;24.990;2022-08-19T09:53:17;9.48;;;5.10;;
30062;SDS011;16889;67.864;24.990;2022-08-19T09:58:03;10.73;;;5.47;;
30062;SDS011;16889;67.864;24.990;2022-08-19T10:02:49;9.63;;;5.53;;
30062;SDS011;16889;67.864;24.990;2022-08-19T10:07:36;14.93;;;8.30;;
30062;SDS011;16889;67.864;24.990;2022-08-19T10:12:22;16.00;;;10.07;;
30062;SDS011;16889;67.864;24.990;2022-08-19T10:17:08;15.68;;;9.43;;
30062;SDS011;16889;67.864;24.990;2022-08-19T10:21:54;18.15;;;10.95;;
30062;SDS011;16889;67.864;24.990;2022-08-19T10:26:41;17.73;;;11.73;;
30062;SDS011;16889;67.864;24.990;2022-08-19T10:31:31;21.52;;;11.43;;
30062;SDS011;16889;67.864;24.990;2022-08-19T10:36:19;21.25;;;10.95;;
30062;SDS011;16889;67.864;24.990;2022-08-19T10:41:11;18.23;;;10.52;;
30062;SDS011;16889;67.864;24.990;2022-08-19T10:46:06;16.67;;;10.68;;
30062;SDS011;16889;67.864;24.990;2022-08-19T10:50:53;15.68;;;11.55;;
30062;SDS011;16889;67.864;24.990;2022-08-19T10:55:57;14.73;;;11.25;;
30062;SDS011;16889;67.864;24.990;2022-08-19T11:01:14;17.30;;;11.35;;
30062;SDS011;16889;67.864;24.990;2022-08-19T11:06:04;20.13;;;10.80;;
30062;SDS011;16889;67.864;24.990;2022-08-19T11:10:52;17.00;;;10.55;;
30062;SDS011;16889;67.864;24.990;2022-08-19T11:15:42;20.88;;;10.60;;
30062;SDS011;16889;67.864;24.990;2022-08-19T11:20:29;20.48;;;11.40;;
30062;SDS011;16889;67.864;24.990;2022-08-19T11:25:16;20.60;;;13.43;;
30062;SDS011;16889;67.864;24.990;2022-08-19T11:30:02;22.90;;;13.70;;
30062;SDS011;16889;67.864;24.990;2022-08-19T11:34:48;19.50;;;13.70;;
30062;SDS011;16889;67.864;24.990;2022-08-19T11:39:34;40.38;;;16.85;;
30062;SDS011;16889;67.864;24.990;2022-08-19T11:44:21;30.57;;;17.83;;
30062;SDS011;16889;67.864;24.990;2022-08-19T11:49:07;31.35;;;17.45;;
30062;SDS011;16889;67.864;24.990;2022-08-19T11:53:54;33.85;;;17.90;;
30062;SDS011;16889;67.864;24.990;2022-08-19T11:58:42;27.58;;;16.08;;
30062;SDS011;16889;67.864;24.990;2022-08-19T12:03:28;32.97;;;16.42;;
30062;SDS011;16889;67.864;24.990;2022-08-19T12:08:14;23.55;;;15.68;;
30062;SDS011;16889;67.864;24.990;2022-08-19T12:13:01;36.58;;;17.65;;
30062;SDS011;16889;67.864;24.990;2022-08-19T12:17:47;30.73;;;16.75;;
30062;SDS011;16889;67.864;24.990;2022-08-19T12:22:33;30.73;;;15.70;;
30062;SDS011;16889;67.864;24.990;2022-08-19T12:27:20;21.92;;;14.50;;
30062;SDS011;16889;67.864;24.990;2022-08-19T12:32:06;24.65;;;14.57;;
30062;SDS011;16889;67.864;24.990;2022-08-19T12:36:52;25.17;;;15.18;;
30062;SDS011;16889;67.864;24.990;2022-08-19T12:41:38;24.00;;;15.10;;
30062;SDS011;16889;67.864;24.990;2022-08-19T12:46:25;20.02;;;12.98;;
30062;SDS011;16889;67.864;24.990;2022-08-19T12:51:12;24.25;;;12.60;;
30062;SDS011;16889;67.864;24.990;2022-08-19T12:56:01;21.30;;;12.45;;
30062;SDS011;16889;67.864;24.990;2022-08-19T13:00:47;30.00;;;11.80;;
30062;SDS011;16889;67.864;24.990;2022-08-19T13:05:34;22.77;;;11.65;;
30062;SDS011;16889;67.864;24.990;2022-08-19T13:10:20;24.17;;;11.30;;
30062;SDS011;16889;67.864;24.990;2022-08-19T13:15:07;17.08;;;11.13;;
30062;SDS011;16889;67.864;24.990;2022-08-19T13:19:53;15.80;;;11.02;;
30062;SDS011;16889;67.864;24.990;2022-08-19T13:24:39;14.20;;;10.52;;
30062;SDS011;16889;67.864;24.990;2022-08-19T13:29:26;22.80;;;10.82;;
30062;SDS011;16889;67.864;24.990;2022-08-19T13:34:33;17.60;;;10.40;;
30062;SDS011;16889;67.864;24.990;2022-08-19T13:39:20;16.25;;;10.50;;
30062;SDS011;16889;67.864;24.990;2022-08-19T13:44:08;16.90;;;10.13;;
30062;SDS011;16889;67.864;24.990;2022-08-19T13:48:54;22.50;;;9.38;;
30062;SDS011;16889;67.864;24.990;2022-08-19T13:53:41;21.73;;;10.15;;
30062;SDS011;16889;67.864;24.990;2022-08-19T13:58:28;19.23;;;9.73;;
30062;SDS011;16889;67.864;24.990;2022-08-19T14:03:16;15.73;;;8.45;;
30062;SDS011;16889;67.864;24.990;2022-08-19T14:08:02;13.98;;;8.38;;
30062;SDS011;16889;67.864;24.990;2022-08-19T14:12:49;17.67;;;8.82;;
30062;SDS011;16889;67.864;24.990;2022-08-19T14:17:38;15.82;;;8.18;;
30062;SDS011;16889;67.864;24.990;2022-08-19T14:22:25;16.27;;;8.45;;
30062;SDS011;16889;67.864;24.990;2022-08-19T14:27:11;20.77;;;8.88;;
30062;SDS011;16889;67.864;24.990;2022-08-19T14:31:57;15.20;;;8.40;;
30062;SDS011;16889;67.864;24.990;2022-08-19T14:36:44;13.18;;;7.90;;
30062;SDS011;16889;67.864;24.990;2022-08-19T14:41:31;10.77;;;7.57;;
30062;SDS011;16889;67.864;24.990;2022-08-19T14:46:19;12.67;;;7.63;;
30062;SDS011;16889;67.864;24.990;2022-08-19T14:51:07;21.85;;;7.68;;
30062;SDS011;16889;67.864;24.990;2022-08-19T14:55:53;17.23;;;7.35;;
30062;SDS011;16889;67.864;24.990;2022-08-19T15:00:39;12.48;;;7.30;;
30062;SDS011;16889;67.864;24.990;2022-08-19T15:05:25;12.82;;;7.35;;
30062;SDS011;16889;67.864;24.990;2022-08-19T15:10:12;14.05;;;7.18;;
30062;SDS011;16889;67.864;24.990;2022-08-19T15:15:00;11.90;;;7.72;;
30062;SDS011;16889;67.864;24.990;2022-08-19T15:19:46;14.02;;;7.72;;
30062;SDS011;16889;67.864;24.990;2022-08-19T15:24:32;26.52;;;8.40;;
30062;SDS011;16889;67.864;24.990;2022-08-19T15:29:20;16.88;;;8.77;;
30062;SDS011;16889;67.864;24.990;2022-08-19T15:34:09;16.33;;;7.80;;
30062;SDS011;16889;67.864;24.990;2022-08-19T15:38:55;11.32;;;8.13;;
30062;SDS011;16889;67.864;24.990;2022-08-19T15:43:41;11.73;;;7.90;;
30062;SDS011;16889;67.864;24.990;2022-08-19T15:48:28;13.40;;;7.60;;
30062;SDS011;16889;67.864;24.990;2022-08-19T15:53:14;14.60;;;7.43;;
30062;SDS011;16889;67.864;24.990;2022-08-19T15:58:01;9.98;;;7.10;;
30062;SDS011;16889;67.864;24.990;2022-08-19T16:03:10;14.32;;;7.50;;
30062;SDS011;16889;67.864;24.990;2022-08-19T16:08:17;16.55;;;7.20;;
30062;SDS011;16889;67.864;24.990;2022-08-19T16:13:04;16.60;;;7.93;;
30062;SDS011;16889;67.864;24.990;2022-08-19T16:17:53;21.08;;;7.95;;
30062;SDS011;16889;67.864;24.990;2022-08-19T16:22:40;20.40;;;8.10;;
30062;SDS011;16889;67.864;24.990;2022-08-19T16:27:27;20.55;;;7.63;;
30062;SDS011;16889;67.864;24.990;2022-08-19T16:37:03;11.05;;;7.78;;
30062;SDS011;16889;67.864;24.990;2022-08-19T16:41:49;17.58;;;8.00;;
30062;SDS011;16889;67.864;24.990;2022-08-19T16:46:35;13.40;;;8.05;;
30062;SDS011;16889;67.864;24.990;2022-08-19T16:51:22;10.47;;;7.93;;
30062;SDS011;16889;67.864;24.990;2022-08-19T16:56:09;13.77;;;7.90;;
30062;SDS011;16889;67.864;24.990;2022-08-19T17:00:56;22.52;;;8.70;;
30062;SDS011;16889;67.864;24.990;2022-08-19T17:05:44;17.42;;;8.50;;
30062;SDS011;16889;67.864;24.990;2022-08-19T17:10:31;17.27;;;8.45;;
30062;SDS011;16889;67.864;24.990;2022-08-19T17:15:18;16.35;;;9.20;;
30062;SDS011;16889;67.864;24.990;2022-08-19T17:20:04;20.35;;;9.07;;
30062;SDS011;16889;67.864;24.990;2022-08-19T17:24:53;13.93;;;9.57;;
30062;SDS011;16889;67.864;24.990;2022-08-19T17:29:39;21.10;;;10.13;;
30062;SDS011;16889;67.864;24.990;2022-08-19T17:34:25;15.05;;;9.32;;
30062;SDS011;16889;67.864;24.990;2022-08-19T17:39:12;14.82;;;9.43;;
30062;SDS011;16889;67.864;24.990;2022-08-19T17:43:58;12.68;;;9.43;;
30062;SDS011;16889;67.864;24.990;2022-08-19T17:53:35;21.23;;;9.18;;
30062;SDS011;16889;67.864;24.990;2022-08-19T17:58:21;12.18;;;9.02;;
30062;SDS011;16889;67.864;24.990;2022-08-19T18:03:07;14.65;;;8.88;;
30062;SDS011;16889;67.864;24.990;2022-08-19T18:07:54;20.33;;;9.80;;
30062;SDS011;16889;67.864;24.990;2022-08-19T18:12:41;14.65;;;10.05;;
30062;SDS011;16889;67.864;24.990;2022-08-19T18:17:28;17.80;;;9.75;;
30062;SDS011;16889;67.864;24.990;2022-08-19T18:27:11;18.05;;;10.73;;
30062;SDS011;16889;67.864;24.990;2022-08-19T18:31:57;15.07;;;10.90;;
30062;SDS011;16889;67.864;24.990;2022-08-19T18:36:43;17.80;;;10.13;;
30062;SDS011;16889;67.864;24.990;2022-08-19T18:41:29;20.65;;;10.25;;
30062;SDS011;16889;67.864;24.990;2022-08-19T18:46:34;17.33;;;10.65;;
30062;SDS011;16889;67.864;24.990;2022-08-19T18:51:38;19.65;;;10.13;;
30062;SDS011;16889;67.864;24.990;2022-08-19T18:56:24;19.00;;;9.43;;
30062;SDS011;16889;67.864;24.990;2022-08-19T19:01:20;13.68;;;9.85;;
30062;SDS011;16889;67.864;24.990;2022-08-19T19:06:12;17.50;;;10.13;;
30062;SDS011;16889;67.864;24.990;2022-08-19T19:10:59;22.58;;;10.25;;
30062;SDS011;16889;67.864;24.990;2022-08-19T19:15:49;21.77;;;10.65;;
30062;SDS011;16889;67.864;24.990;2022-08-19T19:20:36;28.00;;;9.85;;
30062;SDS011;16889;67.864;24.990;2022-08-19T19:25:22;12.00;;;10.40;;
30062;SDS011;16889;67.864;24.990;2022-08-19T19:30:08;16.30;;;9.90;;
30062;SDS011;16889;67.864;24.990;2022-08-19T19:34:54;18.25;;;10.35;;
30062;SDS011;16889;67.864;24.990;2022-08-19T19:39:40;22.27;;;10.73;;
30062;SDS011;16889;67.864;24.990;2022-08-19T19:44:26;14.32;;;10.48;;
30062;SDS011;16889;67.864;24.990;2022-08-19T19:49:13;15.25;;;10.32;;
30062;SDS011;16889;67.864;24.990;2022-08-19T19:53:59;14.25;;;10.48;;
30062;SDS011;16889;67.864;24.990;2022-08-19T19:58:46;26.52;;;12.10;;
30062;SDS011;16889;67.864;24.990;2022-08-19T20:03:34;16.88;;;11.80;;
30062;SDS011;16889;67.864;24.990;2022-08-19T20:08:20;27.02;;;11.27;;
30062;SDS011;16889;67.864;24.990;2022-08-19T20:13:24;16.25;;;10.88;;
30062;SDS011;16889;67.864;24.990;2022-08-19T20:18:10;15.27;;;10.57;;
30062;SDS011;16889;67.864;24.990;2022-08-19T20:22:58;18.95;;;11.18;;
30062;SDS011;16889;67.864;24.990;2022-08-19T20:27:44;19.80;;;11.30;;
30062;SDS011;16889;67.864;24.990;2022-08-19T20:32:30;18.58;;;11.32;;
30062;SDS011;16889;67.864;24.990;2022-08-19T20:37:16;19.75;;;11.50;;
30062;SDS011;16889;67.864;24.990;2022-08-19T20:42:02;15.77;;;11.38;;
30062;SDS011;16889;67.864;24.990;2022-08-19T20:46:48;18.58;;;11.73;;
30062;SDS011;16889;67.864;24.990;2022-08-19T20:51:34;21.45;;;12.38;;
30062;SDS011;16889;67.864;24.990;2022-08-19T20:56:20;16.60;;;12.30;;
30062;SDS011;16889;67.864;24.990;2022-08-19T21:01:06;16.63;;;11.45;;
30062;SDS011;16889;67.864;24.990;2022-08-19T21:10:40;20.55;;;13.38;;
30062;SDS011;16889;67.864;24.990;2022-08-19T21:15:26;14.38;;;12.35;;
30062;SDS011;16889;67.864;24.990;2022-08-19T21:20:12;15.23;;;11.68;;
30062;SDS011;16889;67.864;24.990;2022-08-19T21:24:58;16.35;;;12.50;;
30062;SDS011;16889;67.864;24.990;2022-08-19T21:29:45;20.48;;;13.90;;
30062;SDS011;16889;67.864;24.990;2022-08-19T21:34:31;20.98;;;14.35;;
30062;SDS011;16889;67.864;24.990;2022-08-19T21:39:17;22.83;;;15.75;;
30062;SDS011;16889;67.864;24.990;2022-08-19T21:44:03;23.60;;;16.23;;
30062;SDS011;16889;67.864;24.990;2022-08-19T21:48:49;23.98;;;17.83;;
30062;SDS011;16889;67.864;24.990;2022-08-19T21:53:35;19.02;;;16.48;;
30062;SDS011;16889;67.864;24.990;2022-08-19T21:58:21;21.58;;;16.40;;
30062;SDS011;16889;67.864;24.990;2022-08-19T22:03:07;20.00;;;15.50;;
30062;SDS011;16889;67.864;24.990;2022-08-19T22:07:54;21.90;;;15.85;;
30062;SDS011;16889;67.864;24.990;2022-08-19T22:12:44;26.20;;;16.92;;
30062;SDS011;16889;67.864;24.990;2022-08-19T22:17:30;22.02;;;17.45;;
30062;SDS011;16889;67.864;24.990;2022-08-19T22:22:21;26.80;;;18.05;;
30062;SDS011;16889;67.864;24.990;2022-08-19T22:27:08;21.42;;;17.70;;
30062;SDS011;16889;67.864;24.990;2022-08-19T22:31:54;26.85;;;16.60;;
30062;SDS011;16889;67.864;24.990;2022-08-19T22:36:40;23.90;;;17.25;;
30062;SDS011;16889;67.864;24.990;2022-08-19T22:41:26;24.13;;;18.80;;
30062;SDS011;16889;67.864;24.990;2022-08-19T22:46:12;28.70;;;18.40;;
30062;SDS011;16889;67.864;24.990;2022-08-19T22:50:58;28.13;;;19.17;;
30062;SDS011;16889;67.864;24.990;2022-08-19T22:56:04;33.88;;;23.88;;
30062;SDS011;16889;67.864;24.990;2022-08-19T23:00:52;48.17;;;28.65;;
30062;SDS011;16889;67.864;24.990;2022-08-19T23:05:38;38.83;;;26.52;;
30062;SDS011;16889;67.864;24.990;2022-08-19T23:10:25;31.50;;;23.98;;
30062;SDS011;16889;67.864;24.990;2022-08-19T23:15:14;31.45;;;23.73;;
30062;SDS011;16889;67.864;24.990;2022-08-19T23:20:04;37.42;;;22.58;;
30062;SDS011;16889;67.864;24.990;2022-08-19T23:24:52;27.67;;;21.50;;
30062;SDS011;16889;67.864;24.990;2022-08-19T23:29:38;30.17;;;22.77;;
30062;SDS011;16889;67.864;24.990;2022-08-19T23:34:42;23.33;;;18.95;;
30062;SDS011;16889;67.864;24.990;2022-08-19T23:39:28;21.17;;;17.08;;
30062;SDS011;16889;67.864;24.990;2022-08-19T23:44:15;26.23;;;17.83;;
30062;SDS011;16889;67.864;24.990;2022-08-19T23:49:01;28.65;;;18.38;;
30062;SDS011;16889;67.864;24.990;2022-08-19T23:53:47;23.20;;;17.25;;
30062;SDS011;16889;67.864;24.990;2022-08-19T23:58:34;23.75;;;18.38;;
